Spring House, Pennsylvania
Current Conditions -  °F | °C
As of 3:35 PM on Friday 21 Nov 2014 (Local Time) from KLOM Reporting Station
Clear Clear  
Wind Chill: 36°   Ceiling: Unl
Heat Index: 36°   Visibility: 10mi
Dew Point: 10°   Wind: 3mph
Humidity: 35%   Direction: 330°NNW
Pressure: 30.4"   Gusts: NA
Location:  40.19°N, 75.23°W
Report Text: KLOM 212035Z AUTO 33003KT 10SM CLR 02/M12 A3040 RMK AO1
Loading
Personal Weather Stations






























Interactive Weather Map New forecast layout! Learn more

10-Day Weather Forecast

Advertisements
Track Severe Weather on mobile